Time;durP1;ratioP1;P1;durP2;ratioP2;P2;SDS_P1;SDS_P2;PMS_P1;PMS_P2;Temp;Humidity;BMP_temperature;BMP_pressure;BME280_temperature;BME280_humidity;BME280_pressure;Samples;Min_cycle;Max_cycle;Signal;HPM_P1;HPM_P2
2023/05/21 00:00:47;;;;;;;15.52;6.32;;;13.80;99.90;;;;;;5045108;28;20457;-64
2023/05/21 00:03:13;;;;;;;10.82;5.07;;;13.80;99.90;;;;;;5043206;28;20076;-66
2023/05/21 00:05:39;;;;;;;8.98;4.05;;;13.70;99.90;;;;;;5026845;28;20087;-65
2023/05/21 00:08:05;;;;;;;10.90;4.93;;;13.70;99.90;;;;;;5042926;28;20037;-64
2023/05/21 00:10:31;;;;;;;10.77;5.25;;;13.70;99.90;;;;;;5027477;28;20094;-65
2023/05/21 00:12:57;;;;;;;12.43;5.72;;;13.70;99.90;;;;;;5042764;28;20420;-63
2023/05/21 00:15:22;;;;;;;12.85;4.90;;;13.70;99.90;;;;;;5027125;28;20553;-61
2023/05/21 00:17:48;;;;;;;11.20;5.25;;;13.70;99.90;;;;;;5042732;28;20174;-66
2023/05/21 00:20:15;;;;;;;12.23;4.70;;;13.70;99.90;;;;;;5043886;28;20041;-65
2023/05/21 00:22:41;;;;;;;12.30;5.43;;;13.70;99.90;;;;;;5026104;28;20048;-66
2023/05/21 00:25:07;;;;;;;11.93;4.90;;;13.60;99.90;;;;;;5043016;28;20041;-65
2023/05/21 00:27:33;;;;;;;12.88;5.47;;;13.70;99.90;;;;;;5042049;28;20447;-64
2023/05/21 00:29:58;;;;;;;11.52;5.00;;;13.60;99.90;;;;;;5043654;28;20044;-65
2023/05/21 00:32:24;;;;;;;12.45;5.18;;;13.60;99.90;;;;;;5059139;28;20052;-62
2023/05/21 00:34:50;;;;;;;10.88;5.22;;;13.60;99.90;;;;;;5043360;28;20040;-65
2023/05/21 00:37:16;;;;;;;10.90;5.40;;;13.60;99.90;;;;;;5043440;28;20411;-68
2023/05/21 00:39:42;;;;;;;11.82;5.25;;;13.60;99.90;;;;;;5043502;28;20045;-64
2023/05/21 00:42:07;;;;;;;11.80;5.50;;;13.60;99.90;;;;;;5042884;28;20072;-63
2023/05/21 00:44:34;;;;;;;9.70;5.88;;;13.60;99.90;;;;;;5043938;28;20357;-65
2023/05/21 00:47:05;;;;;;;11.75;5.30;;;13.60;99.90;;;;;;5030890;28;20044;-64
2023/05/21 00:49:31;;;;;;;10.18;5.35;;;13.60;99.90;;;;;;5045480;28;20044;-67
2023/05/21 00:52:00;;;;;;;8.98;4.95;;;13.60;99.90;;;;;;5044003;28;20041;-66
2023/05/21 00:54:26;;;;;;;12.95;5.30;;;13.50;99.90;;;;;;5046948;28;20044;-67
2023/05/21 00:56:54;;;;;;;13.23;5.45;;;13.50;99.90;;;;;;5033584;28;20044;-67
2023/05/21 00:59:20;;;;;;;8.35;5.07;;;13.50;99.90;;;;;;5047596;28;20130;-65
2023/05/21 01:01:52;;;;;;;11.93;6.43;;;13.50;99.90;;;;;;5048050;28;20039;-66
2023/05/21 01:04:19;;;;;;;9.75;5.53;;;13.50;99.90;;;;;;5047891;28;20045;-65
2023/05/21 01:06:45;;;;;;;10.25;5.18;;;13.50;99.90;;;;;;5046996;28;20048;-69
2023/05/21 01:09:10;;;;;;;10.77;5.80;;;13.50;99.90;;;;;;5030375;28;20048;-66
2023/05/21 01:11:41;;;;;;;10.43;5.38;;;13.40;99.90;;;;;;5046952;28;20037;-68
2023/05/21 01:14:08;;;;;;;12.38;5.68;;;13.40;99.90;;;;;;5048160;28;20059;-67
2023/05/21 01:16:37;;;;;;;11.45;5.47;;;13.40;99.90;;;;;;5063311;28;20041;-65
2023/05/21 01:19:05;;;;;;;12.23;5.88;;;13.40;99.90;;;;;;5047565;28;20163;-67
2023/05/21 01:21:36;;;;;;;14.48;5.97;;;13.40;99.90;;;;;;5047031;28;20056;-65
2023/05/21 01:24:04;;;;;;;10.15;5.90;;;13.40;99.90;;;;;;5030073;28;20546;-67
2023/05/21 01:26:32;;;;;;;13.40;6.45;;;13.40;99.90;;;;;;5046051;28;20037;-66
2023/05/21 01:28:58;;;;;;;10.48;5.78;;;13.40;99.90;;;;;;5063608;28;20404;-66
2023/05/21 01:31:33;;;;;;;12.68;6.35;;;13.30;99.90;;;;;;5047056;28;20045;-65
2023/05/21 01:34:02;;;;;;;12.05;5.85;;;13.30;99.90;;;;;;5046995;28;20515;-65
2023/05/21 01:36:36;;;;;;;13.10;6.10;;;13.30;99.90;;;;;;5048549;28;20048;-65
2023/05/21 01:39:08;;;;;;;11.13;5.82;;;13.40;99.90;;;;;;5046317;28;20044;-64
2023/05/21 01:41:37;;;;;;;13.18;6.20;;;13.40;99.90;;;;;;5046212;28;20048;-67
2023/05/21 01:44:05;;;;;;;12.18;5.68;;;13.40;99.90;;;;;;5029344;28;20072;-66
2023/05/21 01:46:33;;;;;;;22.33;6.05;;;13.30;99.90;;;;;;5060904;28;20527;-69
2023/05/21 01:48:59;;;;;;;10.05;6.05;;;13.30;99.90;;;;;;5048603;28;20037;-66
2023/05/21 01:51:25;;;;;;;9.88;5.97;;;13.30;99.90;;;;;;5047033;28;20580;-66
2023/05/21 01:53:51;;;;;;;12.38;5.82;;;13.30;99.90;;;;;;5029027;28;20045;-64
2023/05/21 01:56:17;;;;;;;12.77;6.93;;;13.20;99.90;;;;;;5063641;28;20037;-65
2023/05/21 01:58:42;;;;;;;13.85;6.15;;;13.20;99.90;;;;;;5046639;28;20057;-66
2023/05/21 02:01:08;;;;;;;13.88;7.22;;;13.10;99.90;;;;;;5047649;28;20061;-65
2023/05/21 02:03:34;;;;;;;12.63;6.35;;;13.10;99.90;;;;;;5046201;28;20045;-65
2023/05/21 02:06:00;;;;;;;12.57;6.55;;;13.10;99.90;;;;;;5065698;28;20076;-69
2023/05/21 02:08:26;;;;;;;13.57;7.00;;;13.10;99.90;;;;;;5060957;28;20539;-67
2023/05/21 02:10:52;;;;;;;13.75;7.88;;;13.10;99.90;;;;;;5047327;28;20665;-64
2023/05/21 02:13:21;;;;;;;13.45;6.70;;;13.10;99.90;;;;;;5045922;28;20139;-64
2023/05/21 02:15:47;;;;;;;12.43;6.60;;;13.00;99.90;;;;;;5062394;28;20053;-66
2023/05/21 02:18:15;;;;;;;12.18;6.65;;;13.00;99.90;;;;;;5045225;28;20101;-63
2023/05/21 02:20:44;;;;;;;16.23;7.10;;;13.00;99.90;;;;;;5049173;28;20051;-67
2023/05/21 02:23:10;;;;;;;12.40;7.00;;;13.00;99.90;;;;;;5062260;28;20040;-66
2023/05/21 02:25:35;;;;;;;16.17;7.07;;;13.00;99.90;;;;;;5045595;28;20499;-65
2023/05/21 02:28:01;;;;;;;15.00;7.20;;;13.00;99.90;;;;;;5044795;28;20142;-67
2023/05/21 02:30:27;;;;;;;13.05;7.28;;;13.00;99.90;;;;;;5046210;28;20029;-67
2023/05/21 02:32:54;;;;;;;11.65;7.32;;;13.00;99.90;;;;;;5045284;28;20392;-65
2023/05/21 02:35:20;;;;;;;13.15;7.30;;;13.00;99.90;;;;;;5046608;28;20507;-66
2023/05/21 02:37:45;;;;;;;15.50;7.57;;;12.90;99.90;;;;;;5044792;28;20044;-65
2023/05/21 02:40:11;;;;;;;12.85;7.43;;;12.90;99.90;;;;;;5047190;28;20134;-67
2023/05/21 02:42:40;;;;;;;11.93;6.90;;;12.90;99.90;;;;;;5048027;28;20123;-64
2023/05/21 02:45:08;;;;;;;16.65;8.27;;;12.90;99.90;;;;;;5064968;28;20451;-67
2023/05/21 02:47:34;;;;;;;16.08;7.38;;;12.90;99.90;;;;;;5054494;28;20048;-68
2023/05/21 02:50:00;;;;;;;14.15;7.47;;;12.90;99.90;;;;;;5062179;28;20392;-68
2023/05/21 02:52:26;;;;;;;16.00;7.68;;;12.90;99.90;;;;;;5044939;28;20512;-64
2023/05/21 02:54:52;;;;;;;18.02;8.15;;;12.90;99.90;;;;;;5045821;28;20037;-66
2023/05/21 02:57:18;;;;;;;15.05;7.45;;;12.90;99.90;;;;;;5027917;28;20138;-65
2023/05/21 02:59:44;;;;;;;16.38;7.63;;;12.90;99.90;;;;;;5046660;28;20127;-66
2023/05/21 03:02:10;;;;;;;15.60;7.38;;;12.90;99.90;;;;;;5061474;28;20184;-66
2023/05/21 03:04:44;;;;;;;14.15;7.22;;;12.80;99.90;;;;;;5044629;28;20122;-65
2023/05/21 03:07:12;;;;;;;14.00;7.50;;;12.80;99.90;;;;;;5044334;28;20033;-67
2023/05/21 03:09:40;;;;;;;14.13;7.22;;;12.80;99.90;;;;;;5044977;28;20049;-65
2023/05/21 03:12:06;;;;;;;13.15;6.88;;;12.80;99.90;;;;;;5045170;28;20044;-64
2023/05/21 03:14:32;;;;;;;13.38;7.13;;;12.80;99.90;;;;;;5052431;28;20032;-66
2023/05/21 03:16:58;;;;;;;14.32;7.40;;;12.80;99.90;;;;;;5057977;28;20431;-65
2023/05/21 03:19:24;;;;;;;15.90;8.65;;;12.80;99.90;;;;;;5028236;28;20040;-65
2023/05/21 03:21:49;;;;;;;14.18;7.05;;;12.80;99.90;;;;;;5044627;28;20076;-65
2023/05/21 03:24:15;;;;;;;15.73;7.30;;;12.70;99.90;;;;;;5044111;28;20489;-69
2023/05/21 03:26:41;;;;;;;16.05;7.57;;;12.70;99.90;;;;;;5068978;28;20037;-65
2023/05/21 03:29:06;;;;;;;17.35;7.15;;;12.70;99.90;;;;;;5064322;28;20089;-68
2023/05/21 03:31:32;;;;;;;16.20;8.20;;;12.70;99.90;;;;;;5060987;28;20037;-67
2023/05/21 03:33:58;;;;;;;16.45;7.15;;;12.70;99.90;;;;;;5043914;28;20122;-68
2023/05/21 03:36:23;;;;;;;12.85;7.43;;;12.60;99.90;;;;;;5044541;28;20511;-64
2023/05/21 03:38:49;;;;;;;15.10;8.07;;;12.60;99.90;;;;;;5044237;28;20138;-65
2023/05/21 03:41:15;;;;;;;13.85;7.53;;;12.70;99.90;;;;;;5045597;28;20044;-65
2023/05/21 03:43:40;;;;;;;15.55;7.65;;;12.60;99.90;;;;;;5046221;28;20037;-66
2023/05/21 03:46:06;;;;;;;16.33;7.97;;;12.60;99.90;;;;;;5044162;28;20044;-66
2023/05/21 03:48:31;;;;;;;12.60;8.23;;;12.60;99.90;;;;;;5044362;28;20037;-65
2023/05/21 03:50:57;;;;;;;20.23;7.22;;;12.60;99.90;;;;;;5060902;28;20484;-64
2023/05/21 03:53:23;;;;;;;16.40;8.50;;;12.60;99.90;;;;;;5043970;28;20503;-65
2023/05/21 03:55:53;;;;;;;15.57;8.32;;;12.60;99.90;;;;;;5043717;28;20061;-66
2023/05/21 03:58:23;;;;;;;16.90;8.00;;;12.60;99.90;;;;;;5043972;28;20065;-68
2023/05/21 04:00:48;;;;;;;14.98;8.57;;;12.60;99.90;;;;;;5044580;28;20056;-65
2023/05/21 04:03:14;;;;;;;17.55;7.40;;;12.60;99.90;;;;;;5045142;28;20421;-67
2023/05/21 04:05:41;;;;;;;19.20;8.57;;;12.60;99.90;;;;;;5060465;28;20041;-65
2023/05/21 04:08:07;;;;;;;14.35;7.70;;;12.60;99.90;;;;;;5043620;28;20118;-66
2023/05/21 04:10:33;;;;;;;19.77;8.23;;;12.70;99.90;;;;;;5045630;28;20037;-64
2023/05/21 04:13:00;;;;;;;13.50;8.05;;;12.70;99.90;;;;;;5044134;28;20033;-71
2023/05/21 04:15:26;;;;;;;15.98;8.43;;;12.70;99.90;;;;;;5048039;28;20032;-66
2023/05/21 04:17:53;;;;;;;17.42;7.93;;;12.70;99.90;;;;;;5049536;28;20048;-65
2023/05/21 04:20:19;;;;;;;16.60;7.80;;;12.70;99.90;;;;;;5043944;28;20515;-66
2023/05/21 04:22:44;;;;;;;14.90;7.45;;;12.70;99.90;;;;;;5043047;28;20036;-65
2023/05/21 04:25:11;;;;;;;15.60;7.90;;;12.80;99.90;;;;;;5045620;28;20045;-66
2023/05/21 04:27:36;;;;;;;15.65;7.70;;;12.70;99.90;;;;;;5063218;28;20598;-66
2023/05/21 04:30:03;;;;;;;13.63;7.15;;;12.80;99.90;;;;;;5049808;28;20120;-66
2023/05/21 04:32:30;;;;;;;15.57;6.95;;;12.70;99.90;;;;;;5064328;28;20040;-64
2023/05/21 04:34:56;;;;;;;14.82;7.75;;;12.80;99.90;;;;;;5047805;28;20547;-64
2023/05/21 04:37:23;;;;;;;13.60;7.60;;;12.80;99.90;;;;;;5048873;28;20128;-65
2023/05/21 04:39:49;;;;;;;16.65;7.40;;;12.80;99.90;;;;;;5047685;28;20672;-65
2023/05/21 04:42:15;;;;;;;16.52;8.45;;;12.80;99.90;;;;;;5047411;28;20045;-66
2023/05/21 04:44:43;;;;;;;15.73;7.47;;;12.80;99.90;;;;;;5047365;28;20098;-69
2023/05/21 04:47:09;;;;;;;13.88;7.40;;;12.80;99.90;;;;;;5030822;28;20105;-65
2023/05/21 04:49:34;;;;;;;20.73;7.75;;;12.90;99.90;;;;;;5047619;28;20120;-65
2023/05/21 04:52:01;;;;;;;17.48;7.35;;;12.90;99.90;;;;;;5047238;28;20135;-64
2023/05/21 04:54:27;;;;;;;15.60;7.53;;;13.00;99.90;;;;;;5045770;28;20094;-67
2023/05/21 04:56:53;;;;;;;19.52;6.93;;;13.10;99.90;;;;;;5047515;28;20135;-67
2023/05/21 04:59:19;;;;;;;14.18;6.30;;;13.40;99.90;;;;;;5063916;28;20056;-63
2023/05/21 05:01:45;;;;;;;12.63;6.28;;;13.60;99.90;;;;;;5063018;28;20041;-64
2023/05/21 05:04:11;;;;;;;15.57;6.45;;;13.70;99.90;;;;;;5068182;28;20036;-67
2023/05/21 05:06:37;;;;;;;15.27;7.03;;;13.80;99.90;;;;;;5050965;28;20521;-64
2023/05/21 05:09:03;;;;;;;18.17;7.28;;;13.90;99.90;;;;;;5068917;28;20032;-65
2023/05/21 05:11:29;;;;;;;13.50;6.32;;;13.90;99.90;;;;;;5067251;28;20037;-66
2023/05/21 05:13:54;;;;;;;15.38;6.38;;;14.10;99.90;;;;;;5062752;28;20040;-66
2023/05/21 05:16:24;;;;;;;14.93;6.55;;;14.00;99.90;;;;;;5065833;28;20044;-64
2023/05/21 05:18:51;;;;;;;14.30;6.35;;;14.10;99.90;;;;;;5063582;28;20619;-68
2023/05/21 05:21:17;;;;;;;12.85;5.95;;;14.10;99.90;;;;;;5030346;28;20037;-66
2023/05/21 05:23:43;;;;;;;15.23;6.18;;;14.10;99.90;;;;;;5046852;28;20450;-64
2023/05/21 05:26:10;;;;;;;13.98;5.65;;;14.00;99.90;;;;;;5063568;28;20044;-66
2023/05/21 05:28:35;;;;;;;15.13;6.10;;;14.00;99.90;;;;;;5047933;28;20037;-64
2023/05/21 05:31:01;;;;;;;13.07;6.60;;;14.10;99.90;;;;;;5046385;28;20064;-65
2023/05/21 05:33:27;;;;;;;15.00;5.78;;;14.00;99.90;;;;;;5047129;28;20231;-65
2023/05/21 05:35:52;;;;;;;13.88;5.88;;;14.00;99.90;;;;;;5046642;28;20045;-66
2023/05/21 05:38:18;;;;;;;13.00;5.40;;;14.00;99.90;;;;;;5046503;28;20116;-68
2023/05/21 05:40:44;;;;;;;12.90;5.97;;;13.90;99.90;;;;;;5039878;28;20041;-66
2023/05/21 05:43:09;;;;;;;12.55;5.68;;;13.90;99.90;;;;;;5047277;28;20082;-64
2023/05/21 05:45:35;;;;;;;15.07;6.35;;;13.90;99.90;;;;;;5046544;28;20132;-68
2023/05/21 05:48:01;;;;;;;13.25;5.47;;;13.90;99.90;;;;;;5047560;28;20072;-68
2023/05/21 05:50:27;;;;;;;14.02;6.53;;;13.80;99.90;;;;;;5030373;28;20052;-65
2023/05/21 05:52:52;;;;;;;11.52;5.68;;;13.80;99.90;;;;;;5054323;28;20040;-64
2023/05/21 05:55:18;;;;;;;13.38;6.18;;;13.80;99.90;;;;;;5058103;28;20066;-65
2023/05/21 05:57:44;;;;;;;11.15;5.80;;;13.90;99.90;;;;;;5062404;28;20052;-65
2023/05/21 06:00:10;;;;;;;13.75;5.45;;;13.80;99.90;;;;;;5058195;28;20056;-67
2023/05/21 06:02:36;;;;;;;10.20;5.75;;;13.80;99.90;;;;;;5063666;28;20045;-65
2023/05/21 06:05:03;;;;;;;10.55;5.78;;;13.80;99.90;;;;;;5065095;28;20067;-65
2023/05/21 06:07:28;;;;;;;11.43;6.20;;;13.80;99.90;;;;;;5065859;28;20582;-65
2023/05/21 06:09:54;;;;;;;11.23;5.25;;;13.90;99.90;;;;;;5066044;28;20037;-66
2023/05/21 06:12:20;;;;;;;10.75;6.10;;;13.90;99.90;;;;;;5065756;28;20123;-64
2023/05/21 06:14:47;;;;;;;14.65;6.22;;;13.90;99.90;;;;;;5057099;28;20068;-67
2023/05/21 06:17:13;;;;;;;13.50;5.70;;;14.00;99.90;;;;;;5037146;28;20041;-67
2023/05/21 06:19:39;;;;;;;13.98;6.30;;;14.10;99.90;;;;;;5064840;28;20041;-66
2023/05/21 06:22:05;;;;;;;13.70;5.63;;;14.20;99.90;;;;;;5065928;28;20532;-64
2023/05/21 06:24:31;;;;;;;13.45;5.90;;;14.20;99.90;;;;;;5066794;28;20063;-66
2023/05/21 06:26:56;;;;;;;16.45;6.68;;;14.20;99.90;;;;;;5063592;28;20036;-66
2023/05/21 06:29:22;;;;;;;12.73;5.53;;;14.20;99.90;;;;;;5065223;28;20515;-65
2023/05/21 06:31:48;;;;;;;12.20;5.90;;;14.20;99.90;;;;;;5093257;27;20715;-64
2023/05/21 06:34:13;;;;;;;13.02;5.38;;;14.20;99.90;;;;;;5063381;28;20492;-66
2023/05/21 06:36:39;;;;;;;13.07;5.97;;;14.30;99.90;;;;;;5049546;28;20050;-65
2023/05/21 06:39:05;;;;;;;12.63;5.82;;;14.30;99.90;;;;;;5065172;28;20044;-66
2023/05/21 06:41:31;;;;;;;18.02;5.82;;;14.30;99.90;;;;;;5048115;28;20098;-65
2023/05/21 06:43:56;;;;;;;15.10;5.80;;;14.30;99.90;;;;;;5057469;28;20041;-64
2023/05/21 06:46:22;;;;;;;10.75;5.32;;;14.30;99.90;;;;;;5045032;28;20068;-64
2023/05/21 06:48:48;;;;;;;12.43;5.57;;;14.30;99.90;;;;;;5062965;28;20071;-66
2023/05/21 06:51:13;;;;;;;12.90;5.85;;;14.30;99.90;;;;;;5045498;28;20079;-67
2023/05/21 06:53:39;;;;;;;11.25;5.55;;;14.30;99.90;;;;;;5044995;28;20500;-64
2023/05/21 06:56:05;;;;;;;10.13;5.40;;;14.30;99.90;;;;;;5044075;28;20128;-65
2023/05/21 06:58:31;;;;;;;12.68;5.88;;;14.30;99.90;;;;;;5045864;28;20749;-64
2023/05/21 07:00:57;;;;;;;12.98;5.35;;;14.30;99.90;;;;;;5045560;28;20049;-66
2023/05/21 07:03:23;;;;;;;13.32;5.63;;;14.40;99.90;;;;;;5044227;28;20044;-65
2023/05/21 07:05:48;;;;;;;13.48;5.85;;;14.40;99.90;;;;;;5045357;28;20500;-61
2023/05/21 07:08:14;;;;;;;11.68;5.40;;;14.40;99.90;;;;;;5043975;28;20071;-63
2023/05/21 07:10:41;;;;;;;13.32;6.38;;;14.40;99.90;;;;;;5044403;28;20634;-64
2023/05/21 07:13:07;;;;;;;11.85;5.70;;;14.30;99.90;;;;;;5043859;28;20551;-64
2023/05/21 07:15:32;;;;;;;10.00;5.32;;;14.40;99.90;;;;;;5044536;28;20053;-66
2023/05/21 07:17:58;;;;;;;13.88;5.75;;;14.40;99.90;;;;;;5043806;28;20041;-64
2023/05/21 07:20:23;;;;;;;13.45;6.18;;;14.50;99.90;;;;;;5044338;28;20043;-63
2023/05/21 07:22:49;;;;;;;13.10;5.15;;;14.50;99.90;;;;;;5043762;28;20512;-64
2023/05/21 07:25:15;;;;;;;14.88;6.00;;;14.40;99.90;;;;;;5045509;28;20080;-66
2023/05/21 07:27:41;;;;;;;15.25;6.28;;;14.50;99.90;;;;;;5044567;28;20557;-63
2023/05/21 07:30:08;;;;;;;11.73;5.78;;;14.50;99.90;;;;;;5045760;28;20459;-68
2023/05/21 07:32:33;;;;;;;13.20;6.72;;;14.50;99.90;;;;;;5052078;28;20032;-65
2023/05/21 07:35:00;;;;;;;12.05;5.75;;;14.50;99.90;;;;;;5036584;28;20041;-65
2023/05/21 07:37:27;;;;;;;13.68;6.13;;;14.50;99.90;;;;;;5043563;28;20041;-63
2023/05/21 07:39:54;;;;;;;15.35;5.80;;;14.60;99.90;;;;;;5045499;28;20044;-65
2023/05/21 07:42:20;;;;;;;14.20;6.18;;;14.60;99.90;;;;;;5027296;28;20139;-65
2023/05/21 07:44:45;;;;;;;13.13;5.88;;;14.70;99.90;;;;;;5059733;28;20047;-64
2023/05/21 07:47:11;;;;;;;14.52;6.05;;;14.80;99.90;;;;;;5056463;28;20060;-65
2023/05/21 07:49:36;;;;;;;14.80;6.10;;;14.80;99.90;;;;;;5061115;28;20090;-62
2023/05/21 07:52:02;;;;;;;12.10;5.45;;;14.80;99.90;;;;;;5045427;28;20044;-64
2023/05/21 07:54:28;;;;;;;10.32;4.90;;;14.90;99.90;;;;;;5044740;28;20067;-64
2023/05/21 07:56:53;;;;;;;13.35;5.35;;;14.90;99.90;;;;;;5045170;28;20052;-64
2023/05/21 07:59:19;;;;;;;15.55;6.00;;;14.90;99.90;;;;;;5044056;28;20049;-64
2023/05/21 08:01:45;;;;;;;14.73;6.47;;;15.00;99.90;;;;;;5044388;28;20487;-65
2023/05/21 08:04:11;;;;;;;16.48;6.03;;;15.10;99.90;;;;;;5043311;28;20044;-63
2023/05/21 08:06:36;;;;;;;13.18;5.75;;;15.10;99.90;;;;;;5045255;28;20392;-64
2023/05/21 08:09:03;;;;;;;16.52;6.68;;;15.10;99.90;;;;;;5059527;28;20044;-62
2023/05/21 08:11:29;;;;;;;14.10;6.95;;;15.10;99.90;;;;;;5064953;28;20032;-63
2023/05/21 08:13:55;;;;;;;18.75;6.30;;;15.10;99.90;;;;;;5064403;28;20040;-63
2023/05/21 08:16:22;;;;;;;14.48;5.75;;;15.20;99.90;;;;;;5055982;28;20060;-64
2023/05/21 08:18:51;;;;;;;11.98;6.32;;;15.20;99.90;;;;;;5044048;28;20053;-64
2023/05/21 08:21:17;;;;;;;15.75;6.18;;;15.30;99.90;;;;;;5060489;28;20045;-65
2023/05/21 08:23:43;;;;;;;14.75;6.55;;;15.40;99.90;;;;;;5042477;28;20102;-64
2023/05/21 08:26:09;;;;;;;18.90;6.35;;;15.40;99.90;;;;;;5044514;28;20128;-64
2023/05/21 08:28:37;;;;;;;11.55;6.05;;;15.40;99.90;;;;;;5038004;28;20510;-65
2023/05/21 08:31:02;;;;;;;13.32;5.63;;;15.50;99.90;;;;;;5044501;28;20072;-65
2023/05/21 08:33:28;;;;;;;14.55;6.25;;;15.60;99.90;;;;;;5043074;28;20075;-64
2023/05/21 08:35:53;;;;;;;12.80;5.72;;;15.70;99.90;;;;;;5043701;28;20037;-64
2023/05/21 08:38:19;;;;;;;13.13;5.97;;;15.80;99.90;;;;;;5044086;28;20032;-64
2023/05/21 08:40:46;;;;;;;12.35;5.82;;;15.90;99.90;;;;;;5043875;28;20037;-64
2023/05/21 08:43:15;;;;;;;13.43;5.57;;;15.90;99.90;;;;;;5043380;28;20044;-65
2023/05/21 08:45:44;;;;;;;10.68;5.53;;;16.00;99.90;;;;;;5043041;28;20631;-63
2023/05/21 08:48:11;;;;;;;11.02;5.20;;;16.00;99.90;;;;;;5042843;28;20091;-62
2023/05/21 08:50:36;;;;;;;12.93;5.38;;;16.00;99.90;;;;;;5044666;28;20049;-64
2023/05/21 08:53:02;;;;;;;12.95;6.00;;;16.10;99.90;;;;;;5044244;28;20059;-64
2023/05/21 08:55:29;;;;;;;10.90;5.82;;;16.20;99.90;;;;;;5043052;28;20262;-63
2023/05/21 08:57:55;;;;;;;14.40;5.75;;;16.20;99.90;;;;;;5043953;28;20057;-64
2023/05/21 09:00:21;;;;;;;13.50;5.70;;;16.40;99.90;;;;;;5043432;28;20055;-65
2023/05/21 09:02:46;;;;;;;14.15;5.95;;;16.40;99.90;;;;;;5042691;28;20067;-64
2023/05/21 09:05:13;;;;;;;12.38;5.60;;;16.40;99.90;;;;;;5044378;28;20481;-66
2023/05/21 09:07:57;;;;;;;12.60;5.40;;;16.40;99.90;;;;;;5043997;28;20132;-65
2023/05/21 09:10:32;;;;;;;15.82;5.80;;;16.50;99.90;;;;;;5043363;28;20412;-68
2023/05/21 09:12:58;;;;;;;11.90;5.82;;;16.60;99.90;;;;;;5044436;28;20460;-66
2023/05/21 09:15:23;;;;;;;10.15;5.55;;;16.70;99.90;;;;;;5048892;28;20128;-65
2023/05/21 09:17:49;;;;;;;16.27;5.72;;;16.70;99.90;;;;;;5046860;28;20056;-67
2023/05/21 09:20:15;;;;;;;14.60;6.07;;;16.80;99.90;;;;;;5048177;28;20124;-64
2023/05/21 09:22:42;;;;;;;13.75;6.00;;;16.90;99.90;;;;;;5048301;28;20715;-63
2023/05/21 09:25:12;;;;;;;14.65;6.22;;;16.90;99.90;;;;;;5047832;28;20526;-64
2023/05/21 09:27:38;;;;;;;16.83;6.10;;;16.90;99.90;;;;;;5046846;28;20484;-63
2023/05/21 09:30:12;;;;;;;13.73;5.57;;;16.80;99.90;;;;;;5047243;28;20178;-64
2023/05/21 09:32:39;;;;;;;12.70;6.13;;;16.80;99.90;;;;;;5051708;28;20045;-66
2023/05/21 09:35:13;;;;;;;10.95;5.53;;;16.90;99.90;;;;;;5046182;28;20123;-65
2023/05/21 09:37:43;;;;;;;10.50;5.03;;;16.90;99.90;;;;;;5046897;28;20575;-64
2023/05/21 09:40:14;;;;;;;13.02;5.22;;;16.90;99.90;;;;;;5046546;28;20094;-65
2023/05/21 09:42:50;;;;;;;12.40;5.60;;;17.00;99.90;;;;;;5062633;28;20043;-66
2023/05/21 09:45:26;;;;;;;12.95;5.30;;;17.10;99.90;;;;;;5047434;28;20041;-64
2023/05/21 09:47:54;;;;;;;12.77;5.35;;;17.10;99.90;;;;;;5045876;28;20044;-64
2023/05/21 09:50:26;;;;;;;11.90;5.18;;;17.20;99.90;;;;;;5046318;28;20037;-66
2023/05/21 09:52:54;;;;;;;10.98;5.63;;;17.20;99.90;;;;;;5046671;28;20100;-67
2023/05/21 09:55:25;;;;;;;12.82;5.60;;;17.30;99.90;;;;;;5030207;28;20049;-65
2023/05/21 09:57:51;;;;;;;12.70;5.50;;;17.20;99.90;;;;;;5046220;28;20140;-63
2023/05/21 10:00:20;;;;;;;12.23;5.35;;;17.20;99.90;;;;;;5046284;28;20341;-66
2023/05/21 10:02:47;;;;;;;11.00;6.45;;;17.30;99.90;;;;;;5046255;28;20806;-64
2023/05/21 10:05:16;;;;;;;12.95;5.68;;;17.30;99.90;;;;;;5045750;28;20044;-64
2023/05/21 10:07:47;;;;;;;13.77;5.80;;;17.30;99.90;;;;;;5044969;28;20076;-64
2023/05/21 10:10:14;;;;;;;12.05;5.60;;;17.40;99.90;;;;;;5046004;28;20095;-65
2023/05/21 10:12:44;;;;;;;13.85;5.95;;;17.30;99.90;;;;;;5046930;28;20419;-64
2023/05/21 10:15:14;;;;;;;15.77;5.88;;;17.30;99.90;;;;;;5047050;28;20113;-67
2023/05/21 10:17:40;;;;;;;11.93;5.45;;;17.40;99.90;;;;;;5046657;28;20080;-65
2023/05/21 10:20:09;;;;;;;12.18;6.10;;;17.40;99.90;;;;;;5055831;28;20245;-63
2023/05/21 10:22:36;;;;;;;16.85;5.75;;;17.50;99.90;;;;;;5066010;28;20052;-65
2023/05/21 10:25:02;;;;;;;17.45;5.80;;;17.60;99.90;;;;;;5058184;28;20049;-65
2023/05/21 10:27:29;;;;;;;15.68;6.10;;;17.70;99.90;;;;;;5060312;28;20603;-65
2023/05/21 10:29:57;;;;;;;11.50;6.30;;;17.80;99.90;;;;;;5065659;28;20052;-65
2023/05/21 10:32:25;;;;;;;12.00;6.35;;;17.90;99.90;;;;;;5058600;28;20049;-64
2023/05/21 10:34:53;;;;;;;10.52;5.38;;;18.00;99.90;;;;;;5028999;28;20527;-62
2023/05/21 10:37:23;;;;;;;13.48;6.68;;;18.10;99.90;;;;;;5044911;28;20044;-63
2023/05/21 10:39:51;;;;;;;13.25;6.40;;;18.30;99.90;;;;;;5044834;28;20052;-63
2023/05/21 10:42:29;;;;;;;12.68;5.72;;;18.30;99.90;;;;;;5045421;28;20173;-63
2023/05/21 10:45:37;;;;;;;12.38;5.60;;;18.40;99.90;;;;;;5047050;28;20049;-65
2023/05/21 10:48:19;;;;;;;16.50;7.53;;;18.60;99.90;;;;;;5034292;28;20352;-65
2023/05/21 10:51:17;;;;;;;15.65;6.95;;;18.60;99.90;;;;;;5045421;28;20067;-63
2023/05/21 10:54:17;;;;;;;12.88;6.53;;;18.60;99.90;;;;;;5043600;28;20045;-63
2023/05/21 10:57:04;;;;;;;15.45;7.78;;;18.70;99.90;;;;;;5044496;28;20056;-67
2023/05/21 10:59:39;;;;;;;14.30;6.75;;;18.70;99.90;;;;;;5061918;28;20059;-65
2023/05/21 11:02:06;;;;;;;18.42;8.38;;;18.60;99.90;;;;;;5045711;28;20071;-65
2023/05/21 11:04:33;;;;;;;17.27;8.20;;;18.60;99.90;;;;;;5044461;28;20037;-64
2023/05/21 11:06:59;;;;;;;16.23;8.00;;;18.50;99.90;;;;;;5044564;28;20422;-66
2023/05/21 11:09:25;;;;;;;14.07;7.65;;;18.60;99.90;;;;;;5044500;28;20052;-66
2023/05/21 11:11:52;;;;;;;15.38;9.27;;;18.60;99.90;;;;;;5038973;28;20041;-67
2023/05/21 11:14:39;;;;;;;17.40;7.30;;;18.60;99.90;;;;;;5046361;28;20056;-65
2023/05/21 11:17:37;;;;;;;11.10;7.15;;;18.60;99.90;;;;;;5044001;28;20044;-63
2023/05/21 11:20:07;;;;;;;15.23;8.52;;;18.80;99.90;;;;;;5046293;28;20048;-66
2023/05/21 11:22:35;;;;;;;13.90;7.65;;;18.70;99.90;;;;;;5061746;28;20083;-66
2023/05/21 11:25:01;;;;;;;18.33;8.38;;;18.70;99.90;;;;;;5066023;28;20052;-64
2023/05/21 11:27:34;;;;;;;13.20;7.30;;;18.70;99.90;;;;;;5064614;28;20043;-65
2023/05/21 11:30:06;;;;;;;14.73;9.45;;;18.70;99.90;;;;;;5050211;28;20130;-62
2023/05/21 11:32:39;;;;;;;14.80;10.10;;;18.80;99.90;;;;;;5045497;28;20104;-67
2023/05/21 11:35:06;;;;;;;16.95;9.40;;;18.80;99.90;;;;;;5045617;28;20043;-63
2023/05/21 11:37:33;;;;;;;14.38;8.63;;;18.80;99.90;;;;;;5043361;28;20076;-64
2023/05/21 11:40:29;;;;;;;15.75;7.25;;;18.80;99.90;;;;;;5044446;28;20052;-65
2023/05/21 11:42:56;;;;;;;14.88;8.63;;;18.90;99.90;;;;;;5044399;28;20147;-65
2023/05/21 11:45:27;;;;;;;13.57;6.93;;;18.90;99.90;;;;;;5045485;28;20403;-64
2023/05/21 11:47:54;;;;;;;18.55;7.30;;;19.00;99.90;;;;;;5044841;28;20710;-64
2023/05/21 11:50:20;;;;;;;15.35;7.47;;;19.10;99.90;;;;;;5045423;28;20044;-63
2023/05/21 11:52:47;;;;;;;16.98;7.82;;;19.20;99.90;;;;;;5043222;28;20041;-68
2023/05/21 11:55:14;;;;;;;14.02;7.93;;;19.30;99.90;;;;;;5063660;28;20032;-66
2023/05/21 11:57:41;;;;;;;17.33;6.85;;;19.30;99.90;;;;;;5062964;28;20060;-65
2023/05/21 12:00:13;;;;;;;13.60;7.05;;;19.30;99.90;;;;;;5046019;28;20067;-65
2023/05/21 12:02:52;;;;;;;15.73;8.27;;;19.40;99.90;;;;;;5045635;28;20059;-66
2023/05/21 12:05:18;;;;;;;16.42;8.65;;;19.40;99.90;;;;;;5027364;28;20083;-66
2023/05/21 12:07:49;;;;;;;19.50;9.85;;;19.40;99.90;;;;;;5044722;28;20129;-63
2023/05/21 12:10:15;;;;;;;16.20;8.25;;;19.40;99.90;;;;;;5044241;28;20071;-63
2023/05/21 12:12:41;;;;;;;15.35;9.18;;;19.40;99.90;;;;;;5027997;28;20033;-63
2023/05/21 12:15:09;;;;;;;17.35;9.50;;;19.40;99.90;;;;;;5044962;28;20037;-63
2023/05/21 12:17:34;;;;;;;18.75;8.70;;;19.30;99.90;;;;;;5043438;28;20036;-65
2023/05/21 12:20:00;;;;;;;16.80;9.70;;;19.30;99.90;;;;;;5045203;28;20743;-65
2023/05/21 12:22:28;;;;;;;20.02;9.20;;;19.40;99.90;;;;;;5043008;28;20075;-64
2023/05/21 12:24:53;;;;;;;19.40;9.43;;;19.40;99.90;;;;;;5043398;28;20186;-66
2023/05/21 12:27:20;;;;;;;17.52;9.48;;;19.40;99.90;;;;;;5056810;28;20554;-63
2023/05/21 12:29:48;;;;;;;20.88;9.82;;;19.30;99.90;;;;;;5063922;28;20047;-64
2023/05/21 12:32:15;;;;;;;16.38;10.55;;;19.30;99.90;;;;;;5047154;28;20036;-62
2023/05/21 12:34:51;;;;;;;17.98;10.43;;;19.20;99.90;;;;;;5050019;28;20043;-67
2023/05/21 12:37:20;;;;;;;19.05;11.65;;;19.20;99.90;;;;;;5044778;28;20037;-65